createdAt,value
2019-06-10T00:02:41.334Z,60.41
2019-06-10T00:06:45.942Z,60.23
2019-06-10T00:10:51.282Z,61.16
2019-06-10T00:14:58.735Z,61.18
2019-06-10T00:19:06.827Z,61.29
2019-06-10T00:23:12.000Z,61.73
2019-06-10T00:27:17.664Z,61.63
2019-06-10T00:31:23.418Z,61.86
2019-06-10T00:35:28.485Z,61.93
2019-06-10T00:39:33.564Z,62.94
2019-06-10T00:43:41.010Z,63.93
2019-06-10T00:47:45.635Z,63.96
2019-06-10T00:51:51.190Z,64.53
2019-06-10T00:55:56.425Z,64.79
2019-06-10T01:00:12.079Z,64.83
2019-06-10T01:04:09.339Z,65.56
2019-06-10T01:08:15.796Z,65.32
2019-06-10T01:12:21.255Z,65.05
2019-06-10T01:16:26.420Z,65.90
2019-06-10T01:20:32.514Z,65.44
2019-06-10T01:24:37.759Z,65.22
2019-06-10T01:28:43.168Z,65.23
2019-06-10T01:32:50.511Z,64.81
2019-06-10T01:36:55.371Z,65.47
2019-06-10T01:41:01.499Z,66.92
2019-06-10T01:45:06.867Z,66.72
2019-06-10T01:49:14.707Z,66.87
2019-06-10T01:53:21.432Z,64.60
2019-06-10T01:57:26.096Z,64.94
2019-06-10T02:01:41.534Z,64.50
2019-06-10T02:05:46.628Z,64.82
2019-06-10T02:09:52.776Z,64.55
2019-06-10T02:13:58.040Z,65.03
2019-06-10T02:18:03.200Z,65.23
2019-06-10T02:22:08.286Z,65.37
2019-06-10T02:26:14.912Z,65.76
2019-06-10T02:30:38.578Z,66.77
2019-06-10T02:34:27.787Z,67.25
2019-06-10T02:38:38.818Z,67.23
2019-06-10T02:42:43.614Z,67.92
2019-06-10T02:46:49.144Z,70.33
2019-06-10T02:51:07.041Z,71.27
2019-06-10T02:55:15.303Z,70.45
2019-06-10T02:59:21.557Z,70.11
2019-06-10T03:03:35.298Z,69.69
2019-06-10T03:07:35.537Z,70.51
2019-06-10T03:11:39.647Z,70.67
2019-06-10T03:15:48.666Z,70.99
2019-06-10T03:19:53.826Z,70.64
2019-06-10T03:23:58.916Z,71.05
2019-06-10T03:28:04.125Z,73.13
2019-06-10T03:32:09.218Z,73.81
2019-06-10T03:36:14.288Z,74.24
2019-06-10T03:40:20.531Z,73.92
2019-06-10T03:44:27.099Z,73.94
2019-06-10T03:48:34.204Z,74.42
2019-06-10T03:52:39.686Z,74.36
2019-06-10T03:56:44.866Z,74.00
2019-06-10T04:00:52.110Z,75.07
2019-06-10T04:04:56.834Z,73.85
2019-06-10T04:09:02.775Z,74.91
2019-06-10T04:13:09.135Z,73.84
2019-06-10T04:17:14.230Z,71.99
2019-06-10T04:21:20.335Z,70.62
2019-06-10T04:25:28.270Z,70.18
2019-06-10T04:29:33.050Z,70.76
2019-06-10T04:33:39.192Z,71.25
2019-06-10T04:37:44.345Z,72.79
2019-06-10T04:41:49.469Z,70.51
2019-06-10T04:45:54.577Z,69.89
2019-06-10T04:49:59.722Z,69.25
2019-06-10T04:54:04.955Z,69.97
2019-06-10T04:58:10.085Z,70.67
2019-06-10T05:02:15.193Z,70.72
2019-06-10T05:06:21.747Z,69.99
2019-06-10T05:10:28.353Z,69.92
2019-06-10T05:14:34.681Z,69.33
2019-06-10T05:18:42.475Z,67.83
2019-06-10T05:22:47.011Z,68.85
2019-06-10T05:26:52.725Z,69.76
2019-06-10T05:30:57.910Z,68.99
2019-06-10T05:35:03.681Z,69.84
2019-06-10T05:39:08.893Z,69.63
2019-06-10T05:43:14.114Z,69.07
2019-06-10T05:47:19.277Z,68.61
2019-06-10T05:51:25.884Z,68.16
2019-06-10T05:55:33.466Z,68.40
2019-06-10T05:59:37.895Z,68.32
2019-06-10T06:03:43.853Z,68.13
2019-06-10T06:08:02.291Z,67.35
2019-06-10T06:11:56.395Z,67.68
2019-06-10T06:16:03.318Z,68.13
2019-06-10T06:20:10.135Z,65.85
2019-06-10T06:24:15.343Z,66.97
2019-06-10T06:28:22.866Z,68.14
2019-06-10T06:32:28.370Z,68.39
2019-06-10T06:36:35.366Z,68.44
2019-06-10T06:40:43.539Z,67.64
2019-06-10T06:44:48.439Z,64.65
2019-06-10T06:48:53.540Z,66.00
2019-06-10T06:53:19.969Z,67.59
2019-06-10T06:57:05.475Z,68.10
2019-06-10T07:01:14.553Z,67.10
2019-06-10T07:05:18.685Z,63.87
2019-06-10T07:09:24.176Z,63.80
2019-06-10T07:13:31.496Z,65.95
2019-06-10T07:17:38.748Z,64.16
2019-06-10T07:22:02.309Z,64.26
2019-06-10T07:25:53.076Z,63.53
2019-06-10T07:29:57.429Z,63.69
2019-06-10T07:34:02.737Z,64.91
2019-06-10T07:38:07.811Z,63.97
2019-06-10T07:42:13.611Z,61.66
2019-06-10T07:46:18.781Z,58.80
2019-06-10T07:50:24.204Z,59.39
2019-06-10T07:54:29.392Z,61.79
2019-06-10T07:58:36.601Z,59.50
2019-06-10T08:02:44.024Z,59.36
2019-06-10T08:06:49.996Z,59.57
2019-06-10T08:10:55.228Z,59.38
2019-06-10T08:15:02.717Z,61.63
2019-06-10T08:19:26.127Z,60.77
2019-06-10T08:23:16.389Z,60.89
2019-06-10T08:27:22.736Z,57.47
2019-06-10T08:31:27.975Z,58.95
2019-06-10T08:35:43.932Z,61.24
2019-06-10T08:39:40.226Z,60.49
2019-06-10T08:43:48.467Z,57.25
2019-06-10T08:47:54.243Z,55.40
2019-06-10T08:52:02.500Z,52.22
2019-06-10T08:56:07.519Z,52.22
2019-06-10T09:00:16.298Z,50.64
2019-06-10T09:04:22.675Z,51.98
2019-06-10T09:08:27.991Z,51.29
2019-06-10T09:12:36.614Z,51.22
2019-06-10T09:16:41.894Z,52.26
2019-06-10T09:20:52.423Z,54.06
2019-06-10T09:24:56.333Z,52.64
2019-06-10T09:29:02.946Z,51.80
2019-06-10T09:33:07.410Z,50.47
2019-06-10T09:37:12.517Z,49.79
2019-06-10T09:41:17.876Z,47.77
2019-06-10T09:45:23.260Z,46.73
2019-06-10T09:49:28.381Z,45.95
2019-06-10T09:53:42.301Z,47.64
2019-06-10T09:57:41.294Z,43.29
2019-06-10T10:01:50.983Z,46.12
2019-06-10T10:06:06.462Z,45.23
2019-06-10T10:10:04.209Z,46.38
2019-06-10T10:14:10.844Z,47.73
2019-06-10T10:18:16.189Z,46.13
2019-06-10T10:22:22.891Z,44.19
2019-06-10T10:26:28.151Z,44.06
2019-06-10T10:30:34.292Z,46.33
2019-06-10T10:34:39.524Z,46.14
2019-06-10T10:38:44.817Z,48.16
2019-06-10T10:42:56.747Z,49.42
2019-06-10T10:46:57.273Z,48.38
2019-06-10T10:51:03.436Z,48.40
2019-06-10T10:55:09.074Z,47.82
2019-06-10T10:59:14.190Z,42.27
2019-06-10T11:03:19.308Z,43.94
2019-06-10T11:07:24.441Z,46.46
2019-06-10T11:11:33.133Z,46.55
2019-06-10T11:15:37.400Z,46.37
2019-06-10T11:19:42.564Z,48.93
2019-06-10T11:23:48.120Z,48.08
2019-06-10T11:27:55.738Z,46.66
2019-06-10T11:36:04.630Z,48.73
2019-06-10T11:40:10.007Z,47.75
2019-06-10T11:44:15.227Z,44.76
2019-06-10T11:48:20.457Z,40.96
2019-06-10T11:52:25.588Z,41.95
2019-06-10T11:56:33.499Z,45.12
2019-06-10T12:00:37.656Z,43.95
2019-06-10T12:04:42.752Z,42.27
2019-06-10T12:08:48.939Z,43.95
2019-06-10T12:12:58.184Z,43.83
2019-06-10T12:17:29.756Z,46.40
2019-06-10T12:21:07.736Z,45.43
2019-06-10T12:25:31.372Z,46.19
2019-06-10T12:29:22.433Z,41.92
2019-06-10T12:33:26.897Z,39.04
2019-06-10T12:37:33.817Z,40.48
2019-06-10T12:41:40.590Z,38.60
2019-06-10T12:45:46.672Z,36.22
2019-06-10T12:49:53.473Z,35.54
2019-06-10T12:53:59.429Z,39.32
2019-06-10T12:58:06.057Z,39.13
2019-06-10T13:02:21.986Z,39.67
2019-06-10T13:06:18.545Z,35.44
2019-06-10T13:10:37.053Z,33.60
2019-06-10T13:14:43.510Z,35.51
2019-06-10T13:18:48.962Z,33.58
2019-06-10T13:22:54.035Z,36.08
2019-06-10T13:26:59.159Z,38.83
2019-06-10T13:31:06.554Z,42.38
2019-06-10T13:35:12.521Z,40.91
2019-06-10T13:39:17.650Z,41.68
2019-06-10T13:43:23.369Z,43.10
2019-06-10T13:47:28.724Z,40.97
2019-06-10T13:51:35.605Z,38.98
2019-06-10T13:55:40.731Z,38.77
2019-06-10T13:59:46.678Z,42.37
2019-06-10T14:03:53.814Z,43.13
2019-06-10T14:07:58.658Z,45.49
2019-06-10T14:12:04.048Z,44.34
2019-06-10T14:16:09.604Z,44.88
2019-06-10T14:20:15.529Z,44.36
2019-06-10T14:24:22.815Z,43.53
2019-06-10T14:28:39.989Z,40.70
2019-06-10T14:32:34.218Z,40.93
2019-06-10T14:36:39.314Z,43.32
2019-06-10T14:40:44.558Z,43.55
2019-06-10T14:44:49.652Z,43.06
2019-06-10T14:48:54.716Z,44.83
2019-06-10T14:53:02.210Z,49.09
2019-06-10T14:57:07.305Z,65.90
2019-06-10T15:01:19.730Z,70.85
2019-06-10T15:05:19.686Z,60.20
2019-06-10T15:09:24.812Z,75.43
2019-06-10T15:13:32.541Z,83.12
2019-06-10T15:17:36.721Z,84.99
2019-06-10T15:21:42.888Z,75.70
2019-06-10T15:25:52.323Z,73.61
2019-06-10T15:29:54.802Z,79.16
2019-06-10T15:33:59.934Z,77.52
2019-06-10T15:38:05.016Z,82.13
2019-06-10T15:42:11.495Z,81.61
2019-06-10T15:46:17.943Z,83.17
2019-06-10T15:50:26.732Z,82.55
2019-06-10T15:54:30.238Z,84.57
2019-06-10T15:58:35.333Z,85.99
2019-06-10T16:02:40.488Z,85.78
2019-06-10T16:06:45.733Z,84.05
2019-06-10T16:10:52.638Z,84.14
2019-06-10T16:14:57.919Z,84.42
2019-06-10T16:19:03.061Z,84.56
2019-06-10T16:23:08.173Z,86.41
2019-06-10T16:27:14.221Z,89.72
2019-06-10T16:31:21.217Z,89.80
2019-06-10T16:35:27.062Z,89.59
2019-06-10T16:39:32.687Z,89.32
2019-06-10T16:43:37.868Z,88.92
2019-06-10T16:47:43.193Z,90.12
2019-06-10T16:51:48.415Z,90.78
2019-06-10T16:55:53.485Z,89.88
2019-06-10T16:59:58.640Z,90.45
2019-06-10T17:04:03.728Z,90.18
2019-06-10T17:08:08.823Z,90.12
2019-06-10T17:12:13.940Z,90.65
2019-06-10T17:16:20.229Z,90.11
2019-06-10T17:20:27.742Z,89.27
2019-06-10T17:24:33.924Z,88.99
2019-06-10T17:28:39.284Z,89.46
2019-06-10T17:32:44.427Z,90.33
2019-06-10T17:36:49.508Z,90.99
2019-06-10T17:40:54.575Z,91.42
2019-06-10T17:44:59.661Z,91.77
2019-06-10T17:49:05.172Z,92.03
2019-06-10T17:53:12.573Z,92.23
2019-06-10T17:57:17.071Z,91.84
2019-06-10T18:01:23.914Z,91.59
2019-06-10T18:05:31.164Z,91.29
2019-06-10T18:09:37.141Z,91.62
2019-06-10T18:13:42.834Z,91.66
2019-06-10T18:17:48.257Z,91.89
2019-06-10T18:21:53.417Z,91.93
2019-06-10T18:25:58.636Z,91.66
2019-06-10T18:30:10.748Z,92.20
2019-06-10T18:34:12.968Z,92.45
2019-06-10T18:38:17.376Z,92.12
2019-06-10T18:42:23.525Z,92.03
2019-06-10T18:46:29.859Z,91.91
2019-06-10T18:50:36.708Z,91.82
2019-06-10T18:54:43.516Z,90.51
2019-06-10T18:58:48.838Z,90.65
2019-06-10T19:03:09.232Z,91.00
2019-06-10T19:07:02.864Z,91.19
2019-06-10T19:11:07.698Z,91.35
2019-06-10T19:15:14.098Z,91.42
2019-06-10T19:19:19.172Z,90.33
2019-06-10T19:23:24.262Z,89.73
2019-06-10T19:27:30.603Z,88.92
2019-06-10T19:31:39.215Z,89.06
2019-06-10T19:35:43.841Z,89.49
2019-06-10T19:39:53.216Z,89.42
2019-06-10T19:43:55.745Z,89.22
2019-06-10T19:48:03.129Z,89.59
2019-06-10T19:52:07.653Z,89.67
2019-06-10T19:56:13.116Z,89.52
2019-06-10T20:00:19.059Z,89.91
2019-06-10T20:04:24.091Z,89.72
2019-06-10T20:08:29.170Z,89.93
2019-06-10T20:12:34.349Z,89.94
2019-06-10T20:16:39.811Z,90.08
2019-06-10T20:20:47.252Z,90.01
2019-06-10T20:24:53.149Z,90.18
2019-06-10T20:28:58.224Z,90.00
2019-06-10T20:33:03.692Z,90.37
2019-06-10T20:37:08.746Z,90.69
2019-06-10T20:41:13.842Z,90.98
2019-06-10T20:45:19.214Z,91.31
2019-06-10T20:49:24.384Z,91.47
2019-06-10T20:53:29.596Z,91.73
2019-06-10T20:57:47.245Z,92.06
2019-06-10T21:01:44.482Z,92.31
2019-06-10T21:05:53.289Z,92.67
2019-06-10T21:09:59.065Z,92.74
2019-06-10T21:14:04.458Z,92.74
2019-06-10T21:18:09.934Z,92.64
2019-06-10T21:22:15.041Z,92.65
2019-06-10T21:26:20.126Z,92.66
2019-06-10T21:30:37.543Z,92.67
2019-06-10T21:34:32.705Z,92.48
2019-06-10T21:38:37.817Z,92.45
2019-06-10T21:42:47.894Z,92.17
2019-06-10T21:46:53.131Z,92.03
2019-06-10T21:50:58.351Z,91.93
2019-06-10T21:55:36.003Z,91.79
2019-06-10T22:05:07.038Z,91.09
2019-06-10T22:09:12.527Z,91.07
2019-06-10T22:13:17.648Z,90.88
2019-06-10T22:17:23.185Z,90.72
2019-06-10T22:21:28.295Z,90.67
2019-06-10T22:25:33.402Z,90.58
2019-06-10T22:29:38.657Z,90.26
2019-06-10T22:33:43.794Z,89.75
2019-06-10T22:37:49.664Z,89.52
2019-06-10T22:41:56.966Z,89.18
2019-06-10T22:46:03.976Z,89.22
2019-06-10T22:50:12.577Z,88.88
2019-06-10T22:54:17.411Z,88.91
2019-06-10T22:58:23.750Z,88.45
2019-06-10T23:02:28.934Z,88.78
2019-06-10T23:06:35.144Z,89.02
2019-06-10T23:10:42.651Z,88.94
2019-06-10T23:14:48.591Z,88.77
2019-06-10T23:18:55.617Z,88.70
2019-06-10T23:23:03.053Z,89.05
2019-06-10T23:27:07.328Z,88.88
2019-06-10T23:31:12.891Z,88.65
2019-06-10T23:35:18.049Z,88.74
2019-06-10T23:39:23.116Z,88.87
2019-06-10T23:43:28.187Z,88.96
2019-06-10T23:47:33.280Z,89.16
2019-06-10T23:51:38.651Z,89.04
2019-06-10T23:55:43.781Z,88.79
2019-06-10T23:59:48.781Z,88.43
